createdAt,value
2022-10-26T00:01:16.243Z,24.50
2022-10-26T00:03:45.450Z,23.63
2022-10-26T00:06:14.017Z,19.55
2022-10-26T00:08:41.595Z,30.92
2022-10-26T00:11:09.006Z,19.63
2022-10-26T00:13:37.079Z,18.10
2022-10-26T00:16:14.277Z,21.40
2022-10-26T00:18:41.850Z,18.00
2022-10-26T00:21:10.476Z,23.00
2022-10-26T00:23:38.037Z,19.67
2022-10-26T00:26:06.136Z,25.73
2022-10-26T00:28:33.553Z,23.23
2022-10-26T00:31:06.750Z,24.30
2022-10-26T00:33:34.582Z,19.02
2022-10-26T00:36:02.178Z,19.67
2022-10-26T00:38:29.907Z,22.17
2022-10-26T00:43:29.648Z,24.17
2022-10-26T00:45:58.995Z,20.38
2022-10-26T00:48:33.633Z,22.42
2022-10-26T00:51:04.826Z,19.20
2022-10-26T00:53:33.106Z,21.40
2022-10-26T00:56:01.040Z,18.35
2022-10-26T00:58:28.985Z,18.80
2022-10-26T01:00:56.330Z,27.55
2022-10-26T01:03:28.135Z,18.80
2022-10-26T01:05:58.646Z,25.77
2022-10-26T01:08:28.609Z,22.23
2022-10-26T01:10:58.095Z,20.58
2022-10-26T01:13:30.946Z,20.25
2022-10-26T01:16:23.102Z,18.05
2022-10-26T01:18:59.224Z,15.52
2022-10-26T01:21:45.076Z,18.85
2022-10-26T01:24:49.849Z,25.60
2022-10-26T01:27:45.821Z,22.02
2022-10-26T01:30:51.538Z,22.08
2022-10-26T01:33:27.261Z,25.65
2022-10-26T01:36:01.338Z,20.63
2022-10-26T01:39:00.881Z,20.52
2022-10-26T01:41:42.363Z,22.73
2022-10-26T01:44:51.447Z,21.52
2022-10-26T01:47:20.825Z,12.77
2022-10-26T01:49:59.276Z,18.85
2022-10-26T01:52:27.690Z,23.63
2022-10-26T01:55:27.603Z,20.10
2022-10-26T01:58:04.334Z,16.23
2022-10-26T02:00:37.982Z,17.42
2022-10-26T02:03:24.434Z,24.25
2022-10-26T02:06:53.055Z,20.80
2022-10-26T02:09:25.808Z,21.33
2022-10-26T02:11:54.395Z,18.98
2022-10-26T02:14:45.273Z,17.40
2022-10-26T02:17:21.337Z,17.92
2022-10-26T02:19:59.130Z,16.33
2022-10-26T02:22:35.132Z,18.73
2022-10-26T02:25:12.170Z,16.35
2022-10-26T02:27:45.875Z,18.23
2022-10-26T02:30:13.840Z,16.73
2022-10-26T02:32:46.169Z,18.60
2022-10-26T02:35:17.554Z,20.02
2022-10-26T02:37:47.581Z,16.55
2022-10-26T02:40:20.951Z,15.52
2022-10-26T02:42:51.446Z,18.10
2022-10-26T02:45:24.016Z,21.25
2022-10-26T02:47:52.399Z,21.00
2022-10-26T02:50:24.137Z,19.55
2022-10-26T02:53:26.842Z,15.68
2022-10-26T02:55:54.303Z,18.63
2022-10-26T02:58:29.744Z,18.15
2022-10-26T03:00:58.363Z,16.05
2022-10-26T03:03:25.939Z,16.77
2022-10-26T03:05:53.311Z,16.48
2022-10-26T03:08:20.686Z,15.35
2022-10-26T03:10:48.145Z,18.55
2022-10-26T03:13:15.482Z,29.15
2022-10-26T03:15:42.805Z,18.30
2022-10-26T03:18:10.191Z,20.25
2022-10-26T03:20:37.516Z,22.60
2022-10-26T03:23:04.873Z,23.27
2022-10-26T03:25:32.233Z,20.70
2022-10-26T03:28:01.445Z,17.83
2022-10-26T03:30:29.635Z,20.38
2022-10-26T03:32:57.394Z,23.55
2022-10-26T03:35:24.804Z,18.77
2022-10-26T03:37:52.471Z,20.52
2022-10-26T03:40:19.947Z,20.00
2022-10-26T03:42:47.408Z,17.90
2022-10-26T03:45:15.100Z,25.95
2022-10-26T03:47:47.077Z,18.35
2022-10-26T03:50:17.485Z,23.65
2022-10-26T03:52:46.660Z,20.58
2022-10-26T03:55:15.080Z,25.20
2022-10-26T03:57:43.717Z,30.20
2022-10-26T04:00:12.761Z,28.92
2022-10-26T04:02:40.026Z,19.10
2022-10-26T04:05:08.196Z,21.33
2022-10-26T04:07:35.536Z,24.77
2022-10-26T04:10:03.305Z,25.45
2022-10-26T04:12:30.681Z,25.55
2022-10-26T04:14:58.440Z,24.25
2022-10-26T04:17:25.772Z,21.88
2022-10-26T04:19:53.040Z,31.10
2022-10-26T04:22:20.303Z,24.00
2022-10-26T04:24:47.657Z,22.73
2022-10-26T04:27:15.071Z,20.77
2022-10-26T04:29:42.386Z,18.75
2022-10-26T04:32:09.729Z,22.27
2022-10-26T04:34:37.013Z,24.70
2022-10-26T04:37:04.341Z,17.42
2022-10-26T04:39:31.694Z,23.20
2022-10-26T04:41:58.999Z,22.50
2022-10-26T04:44:26.326Z,19.70
2022-10-26T04:46:53.651Z,21.15
2022-10-26T04:49:21.031Z,17.73
2022-10-26T04:51:48.369Z,20.85
2022-10-26T04:54:15.770Z,22.45
2022-10-26T04:56:43.066Z,22.90
2022-10-26T04:59:10.610Z,19.02
2022-10-26T05:01:38.045Z,20.02
2022-10-26T05:04:05.382Z,17.33
2022-10-26T05:06:32.720Z,21.60
2022-10-26T05:09:00.081Z,19.83
2022-10-26T05:11:27.408Z,21.23
2022-10-26T05:13:54.754Z,23.35
2022-10-26T05:16:22.109Z,17.42
2022-10-26T05:18:49.743Z,26.60
2022-10-26T05:21:19.814Z,27.63
2022-10-26T05:23:55.294Z,21.60
2022-10-26T05:26:23.733Z,23.13
2022-10-26T05:28:52.409Z,18.00
2022-10-26T05:31:20.940Z,18.52
2022-10-26T05:33:51.946Z,22.50
2022-10-26T05:36:19.438Z,22.23
2022-10-26T05:38:47.218Z,40.63
2022-10-26T05:41:14.525Z,20.00
2022-10-26T05:43:41.844Z,18.33
2022-10-26T05:46:09.279Z,28.17
2022-10-26T05:48:36.590Z,18.60
2022-10-26T05:51:04.222Z,22.70
2022-10-26T05:53:31.630Z,20.02
2022-10-26T05:55:59.372Z,21.13
2022-10-26T05:58:27.008Z,20.98
2022-10-26T06:01:09.126Z,22.38
2022-10-26T06:03:57.853Z,22.45
2022-10-26T06:06:27.987Z,23.25
2022-10-26T06:08:55.410Z,23.73
2022-10-26T06:11:23.023Z,23.00
2022-10-26T06:13:51.465Z,24.88
2022-10-26T06:17:01.829Z,26.80
2022-10-26T06:19:35.036Z,24.88
2022-10-26T06:22:42.345Z,29.42
2022-10-26T06:25:25.030Z,26.40
2022-10-26T06:28:04.205Z,20.38
2022-10-26T06:30:31.575Z,23.33
2022-10-26T06:33:06.634Z,23.60
2022-10-26T06:36:00.123Z,23.75
2022-10-26T06:38:29.192Z,28.27
2022-10-26T06:40:57.358Z,25.75
2022-10-26T06:43:31.160Z,22.05
2022-10-26T06:45:59.471Z,30.52
2022-10-26T06:48:29.445Z,32.60
2022-10-26T06:50:57.096Z,29.80
2022-10-26T06:53:40.791Z,29.05
2022-10-26T06:56:11.325Z,35.90
2022-10-26T06:58:40.566Z,28.95
2022-10-26T07:01:10.898Z,29.33
2022-10-26T07:03:38.515Z,31.83
2022-10-26T07:06:06.511Z,28.30
2022-10-26T07:08:34.171Z,26.92
2022-10-26T07:11:01.449Z,36.25
2022-10-26T07:13:28.778Z,31.52
2022-10-26T07:15:56.070Z,43.55
2022-10-26T07:18:23.342Z,30.70
2022-10-26T07:20:50.680Z,29.13
2022-10-26T07:23:18.132Z,33.78
2022-10-26T07:25:45.497Z,30.33
2022-10-26T07:28:13.388Z,28.17
2022-10-26T07:30:40.911Z,25.90
2022-10-26T07:33:11.216Z,24.58
2022-10-26T07:35:39.093Z,27.52
2022-10-26T07:38:07.433Z,23.38
2022-10-26T07:40:36.235Z,29.70
2022-10-26T07:43:03.625Z,25.05
2022-10-26T07:45:31.058Z,29.02
2022-10-26T07:47:58.381Z,23.77
2022-10-26T07:50:26.050Z,27.33
2022-10-26T07:52:53.560Z,28.92
2022-10-26T07:55:21.043Z,24.95
2022-10-26T07:57:51.042Z,26.73
2022-10-26T08:00:22.152Z,28.83
2022-10-26T08:02:49.546Z,26.42
2022-10-26T08:05:17.397Z,38.88
2022-10-26T08:07:45.737Z,31.08
2022-10-26T08:10:14.003Z,29.40
2022-10-26T08:12:43.178Z,36.00
2022-10-26T08:15:10.835Z,30.23
2022-10-26T08:17:38.404Z,37.65
2022-10-26T08:20:06.394Z,30.52
2022-10-26T08:22:33.766Z,35.22
2022-10-26T08:25:01.053Z,31.13
2022-10-26T08:27:28.664Z,36.55
2022-10-26T08:29:55.980Z,43.30
2022-10-26T08:32:24.575Z,43.45
2022-10-26T08:34:51.803Z,50.70
2022-10-26T08:37:19.236Z,44.15
2022-10-26T08:39:50.564Z,47.95
2022-10-26T08:42:35.998Z,45.10
2022-10-26T08:45:17.846Z,44.33
2022-10-26T08:47:51.290Z,41.80
2022-10-26T08:50:27.774Z,40.47
2022-10-26T08:53:03.747Z,36.03
2022-10-26T08:58:21.949Z,32.08
2022-10-26T09:00:50.869Z,37.45
2022-10-26T09:03:19.197Z,36.13
2022-10-26T09:06:05.351Z,28.40
2022-10-26T09:08:51.246Z,33.70
2022-10-26T09:11:49.087Z,28.92
2022-10-26T09:14:21.219Z,34.08
2022-10-26T09:17:00.555Z,33.70
2022-10-26T09:20:07.676Z,27.83
2022-10-26T09:22:59.765Z,31.77
2022-10-26T09:25:34.654Z,25.48
2022-10-26T09:28:02.562Z,30.30
2022-10-26T09:30:30.436Z,32.05
2022-10-26T09:33:06.293Z,26.65
2022-10-26T09:35:50.088Z,33.17
2022-10-26T09:38:46.828Z,31.45
2022-10-26T09:41:32.994Z,32.55
2022-10-26T09:44:09.262Z,29.13
2022-10-26T09:46:55.167Z,27.10
2022-10-26T09:49:31.327Z,32.55
2022-10-26T09:51:58.923Z,32.05
2022-10-26T09:54:26.293Z,30.67
2022-10-26T09:57:00.418Z,40.17
2022-10-26T09:59:29.671Z,27.38
2022-10-26T10:01:57.102Z,31.60
2022-10-26T10:04:24.772Z,33.45
2022-10-26T10:07:11.211Z,27.55
2022-10-26T10:09:38.535Z,29.38
2022-10-26T10:12:06.762Z,34.88
2022-10-26T10:14:58.393Z,32.42
2022-10-26T10:17:26.355Z,29.35
2022-10-26T10:19:54.069Z,26.58
2022-10-26T10:22:25.821Z,28.80
2022-10-26T10:25:01.794Z,24.83
2022-10-26T10:27:30.816Z,29.33
2022-10-26T10:30:19.639Z,23.70
2022-10-26T10:33:03.693Z,22.88
2022-10-26T10:35:31.111Z,25.10
2022-10-26T10:37:58.595Z,23.67
2022-10-26T10:40:29.275Z,22.52
2022-10-26T10:43:06.777Z,22.13
2022-10-26T10:45:35.480Z,23.20
2022-10-26T10:48:12.677Z,23.08
2022-10-26T10:51:03.322Z,25.00
2022-10-26T10:53:42.994Z,23.63
2022-10-26T10:56:28.312Z,21.52
2022-10-26T10:59:04.626Z,26.38
2022-10-26T11:02:10.964Z,24.25
2022-10-26T11:04:52.210Z,32.20
2022-10-26T11:07:21.597Z,18.70
2022-10-26T11:09:50.345Z,25.35
2022-10-26T11:12:31.947Z,30.95
2022-10-26T11:15:14.017Z,30.05
2022-10-26T11:18:05.119Z,27.50
2022-10-26T11:20:46.210Z,19.45
2022-10-26T11:23:21.646Z,18.80
2022-10-26T11:26:12.014Z,25.50
2022-10-26T11:28:59.070Z,22.63
2022-10-26T11:31:33.030Z,19.92
2022-10-26T11:34:06.359Z,19.48
2022-10-26T11:36:36.161Z,22.80
2022-10-26T11:39:06.705Z,20.55
2022-10-26T11:41:43.948Z,26.27
2022-10-26T11:44:19.024Z,23.05
2022-10-26T11:46:56.868Z,24.73
2022-10-26T11:49:28.410Z,29.23
2022-10-26T11:52:38.052Z,29.65
2022-10-26T11:55:06.033Z,24.73
2022-10-26T11:57:36.824Z,19.63
2022-10-26T12:00:24.536Z,23.02
2022-10-26T12:03:09.080Z,19.55
2022-10-26T12:05:47.216Z,22.95
2022-10-26T12:08:25.461Z,22.60
2022-10-26T12:11:25.628Z,23.35
2022-10-26T12:14:08.234Z,20.63
2022-10-26T12:17:04.161Z,24.75
2022-10-26T12:19:53.668Z,25.30
2022-10-26T12:22:29.281Z,22.88
2022-10-26T12:25:15.435Z,23.38
2022-10-26T12:27:49.925Z,22.88
2022-10-26T12:30:25.033Z,26.25
2022-10-26T12:32:55.524Z,27.08
2022-10-26T12:35:54.922Z,22.42
2022-10-26T12:38:27.917Z,18.70
2022-10-26T12:41:06.606Z,20.73
2022-10-26T12:43:39.148Z,16.45
2022-10-26T12:46:12.607Z,17.92
2022-10-26T12:48:48.447Z,22.42
2022-10-26T12:51:21.985Z,29.75
2022-10-26T12:53:56.988Z,18.33
2022-10-26T12:56:53.596Z,16.50
2022-10-26T12:59:36.007Z,17.60
2022-10-26T13:02:29.510Z,21.38
2022-10-26T13:05:24.647Z,17.70
2022-10-26T13:07:52.203Z,18.23
2022-10-26T13:10:22.966Z,27.75
2022-10-26T13:12:57.379Z,18.08
2022-10-26T13:15:29.542Z,23.33
2022-10-26T13:18:18.331Z,19.50
2022-10-26T13:21:00.161Z,17.70
2022-10-26T13:23:29.188Z,23.08
2022-10-26T13:26:18.470Z,23.70
2022-10-26T13:28:49.248Z,22.25
2022-10-26T13:31:22.485Z,14.57
2022-10-26T13:33:54.234Z,22.25
2022-10-26T13:38:55.311Z,19.58
2022-10-26T13:41:38.876Z,21.88
2022-10-26T13:44:14.025Z,21.55
2022-10-26T13:46:44.481Z,22.55
2022-10-26T13:49:24.942Z,23.38
2022-10-26T13:51:53.097Z,23.90
2022-10-26T13:54:27.034Z,19.27
2022-10-26T13:57:01.442Z,19.45
2022-10-26T13:59:31.387Z,26.27
2022-10-26T14:02:34.799Z,29.40
2022-10-26T14:05:05.028Z,24.35
2022-10-26T14:10:38.484Z,28.90
2022-10-26T14:13:16.791Z,29.73
2022-10-26T14:15:45.730Z,26.08
2022-10-26T14:18:25.161Z,23.13
2022-10-26T14:21:02.619Z,30.60
2022-10-26T14:23:52.515Z,27.20
2022-10-26T14:26:38.006Z,40.78
2022-10-26T14:29:16.337Z,34.85
2022-10-26T14:31:43.748Z,27.00
2022-10-26T14:34:12.658Z,36.15
2022-10-26T14:36:42.751Z,33.50
2022-10-26T14:39:19.338Z,28.77
2022-10-26T14:41:47.325Z,40.83
2022-10-26T14:44:20.510Z,34.42
2022-10-26T14:46:48.167Z,30.30
2022-10-26T14:49:21.474Z,28.27
2022-10-26T14:51:50.093Z,37.05
2022-10-26T14:54:23.521Z,36.38
2022-10-26T14:56:51.228Z,32.53
2022-10-26T14:59:21.580Z,50.03
2022-10-26T15:02:10.434Z,48.28
2022-10-26T15:04:40.053Z,50.90
2022-10-26T15:07:08.692Z,44.20
2022-10-26T15:09:53.172Z,49.28
2022-10-26T15:12:22.760Z,42.63
2022-10-26T15:14:51.196Z,36.33
2022-10-26T15:17:24.739Z,39.22
2022-10-26T15:19:52.444Z,33.47
2022-10-26T15:22:28.358Z,34.00
2022-10-26T15:25:05.528Z,39.10
2022-10-26T15:27:33.220Z,36.00
2022-10-26T15:30:22.738Z,42.30
2022-10-26T15:32:51.585Z,39.15
2022-10-26T15:35:19.009Z,37.67
2022-10-26T15:37:47.574Z,32.25
2022-10-26T15:40:15.695Z,40.15
2022-10-26T15:42:45.340Z,41.20
2022-10-26T15:45:17.305Z,37.90
2022-10-26T15:47:45.041Z,35.15
2022-10-26T15:50:14.698Z,45.42
2022-10-26T15:52:44.247Z,42.78
2022-10-26T15:55:14.327Z,39.58
2022-10-26T15:57:41.906Z,36.47
2022-10-26T16:00:15.517Z,46.97
2022-10-26T16:02:45.114Z,37.53
2022-10-26T16:05:15.987Z,43.17
2022-10-26T16:07:45.938Z,33.17
2022-10-26T16:10:21.958Z,44.90
2022-10-26T16:12:50.424Z,37.03
2022-10-26T16:15:21.088Z,40.35
2022-10-26T16:17:49.517Z,52.38
2022-10-26T16:20:22.882Z,39.20
2022-10-26T16:22:52.656Z,44.63
2022-10-26T16:25:25.829Z,45.95
2022-10-26T16:27:54.791Z,44.10
2022-10-26T16:30:25.818Z,47.03
2022-10-26T16:32:55.596Z,47.33
2022-10-26T16:35:22.900Z,39.75
2022-10-26T16:37:50.213Z,45.53
2022-10-26T16:40:17.682Z,40.33
2022-10-26T16:42:45.172Z,44.05
2022-10-26T16:45:13.436Z,44.35
2022-10-26T16:47:41.198Z,45.60
2022-10-26T16:50:11.535Z,49.95
2022-10-26T16:52:39.581Z,41.90
2022-10-26T16:55:08.182Z,50.58
2022-10-26T16:57:36.752Z,40.60
2022-10-26T17:00:07.757Z,47.00
2022-10-26T17:02:35.208Z,49.73
2022-10-26T17:05:06.045Z,40.50
2022-10-26T17:07:35.520Z,37.85
2022-10-26T17:10:03.085Z,41.63
2022-10-26T17:12:30.567Z,40.95
2022-10-26T17:14:58.995Z,59.28
